createdAt,value
2023-03-05T00:00:17.501Z,13.50
2023-03-05T00:03:59.063Z,11.20
2023-03-05T00:07:03.424Z,9.70
2023-03-05T00:10:08.569Z,12.50
2023-03-05T00:13:12.524Z,10.50
2023-03-05T00:16:16.582Z,12.20
2023-03-05T00:19:20.616Z,11.20
2023-03-05T00:22:24.631Z,12.50
2023-03-05T00:25:28.546Z,8.30
2023-03-05T00:28:32.451Z,9.90
2023-03-05T00:31:37.328Z,14.50
2023-03-05T00:34:41.416Z,10.50
2023-03-05T00:37:45.433Z,13.60
2023-03-05T00:40:50.974Z,10.40
2023-03-05T00:43:55.416Z,10.70
2023-03-05T00:46:59.626Z,8.70
2023-03-05T00:50:05.406Z,7.00
2023-03-05T00:53:10.112Z,6.60
2023-03-05T00:56:14.194Z,11.30
2023-03-05T00:59:18.132Z,7.50
2023-03-05T01:02:22.167Z,10.20
2023-03-05T01:05:26.534Z,7.50
2023-03-05T01:08:30.592Z,13.20
2023-03-05T01:11:34.707Z,15.80
2023-03-05T01:14:38.825Z,16.80
2023-03-05T01:17:42.765Z,14.80
2023-03-05T01:20:47.578Z,12.40
2023-03-05T01:26:55.492Z,10.60
2023-03-05T01:29:59.613Z,11.40
2023-03-05T01:33:04.161Z,9.50
2023-03-05T01:36:13.503Z,6.70
2023-03-05T01:39:17.677Z,12.20
2023-03-05T01:42:22.100Z,8.10
2023-03-05T01:45:26.836Z,7.60
2023-03-05T01:48:31.382Z,7.60
2023-03-05T01:51:44.937Z,8.40
2023-03-05T01:54:51.088Z,10.90
2023-03-05T01:58:06.658Z,15.30
2023-03-05T02:01:10.856Z,13.50
2023-03-05T02:04:19.509Z,12.00
2023-03-05T02:07:24.453Z,14.60
2023-03-05T02:13:40.875Z,10.30
2023-03-05T02:16:45.546Z,11.40
2023-03-05T02:23:06.247Z,14.50
2023-03-05T02:26:11.188Z,11.40
2023-03-05T02:29:20.058Z,14.30
2023-03-05T02:32:24.058Z,10.50
2023-03-05T02:35:28.173Z,13.00
2023-03-05T02:38:32.649Z,9.80
2023-03-05T02:41:37.099Z,12.00
2023-03-05T02:44:41.524Z,15.10
2023-03-05T02:47:45.454Z,11.80
2023-03-05T02:50:49.636Z,11.70
2023-03-05T02:53:54.391Z,11.80
2023-03-05T02:56:59.840Z,10.20
2023-03-05T03:00:06.116Z,14.60
2023-03-05T03:03:10.154Z,11.70
2023-03-05T03:06:14.344Z,13.80
2023-03-05T03:09:18.362Z,9.30
2023-03-05T03:12:22.518Z,10.50
2023-03-05T03:15:26.594Z,10.30
2023-03-05T03:18:30.614Z,8.00
2023-03-05T03:21:34.632Z,9.60
2023-03-05T03:24:39.784Z,10.40
2023-03-05T03:27:43.741Z,9.60
2023-03-05T03:30:47.852Z,10.10
2023-03-05T03:33:52.026Z,13.70
2023-03-05T03:36:56.043Z,7.80
2023-03-05T03:40:00.069Z,10.30
2023-03-05T03:43:04.282Z,12.00
2023-03-05T03:46:08.332Z,11.90
2023-03-05T03:49:22.551Z,9.70
2023-03-05T03:52:27.079Z,8.60
2023-03-05T03:55:31.097Z,13.30
2023-03-05T03:58:35.488Z,9.40
2023-03-05T04:01:39.592Z,9.90
2023-03-05T04:04:44.164Z,8.40
2023-03-05T04:07:48.130Z,13.80
2023-03-05T04:10:52.118Z,13.30
2023-03-05T04:13:56.102Z,12.80
2023-03-05T04:17:00.240Z,13.00
2023-03-05T04:20:06.957Z,9.60
2023-03-05T04:23:10.936Z,12.40
2023-03-05T04:26:14.944Z,11.10
2023-03-05T04:29:19.363Z,11.00
2023-03-05T04:32:26.205Z,12.30
2023-03-05T04:35:30.430Z,7.60
2023-03-05T04:38:34.599Z,12.70
2023-03-05T04:41:38.651Z,7.40
2023-03-05T04:44:42.570Z,6.60
2023-03-05T04:47:46.522Z,6.80
2023-03-05T04:50:50.621Z,8.50
2023-03-05T04:53:54.607Z,10.60
2023-03-05T04:56:58.692Z,6.60
2023-03-05T05:00:14.445Z,11.20
2023-03-05T05:03:18.982Z,11.50
2023-03-05T05:06:23.114Z,10.60
2023-03-05T05:09:27.225Z,5.50
2023-03-05T05:12:31.595Z,5.40
2023-03-05T05:15:35.551Z,6.90
2023-03-05T05:18:39.672Z,8.20
2023-03-05T05:21:43.679Z,7.70
2023-03-05T05:24:47.642Z,7.80
2023-03-05T05:27:51.626Z,4.00
2023-03-05T05:30:56.155Z,7.90
2023-03-05T05:34:00.112Z,6.80
2023-03-05T05:37:04.118Z,7.30
2023-03-05T05:40:08.886Z,9.10
2023-03-05T05:43:12.826Z,10.70
2023-03-05T05:46:19.471Z,8.10
2023-03-05T05:49:23.642Z,6.10
2023-03-05T05:52:27.656Z,7.60
2023-03-05T05:55:31.666Z,8.40
2023-03-05T05:58:37.911Z,6.00
2023-03-05T06:01:42.150Z,5.70
2023-03-05T06:04:46.069Z,4.00
2023-03-05T06:07:50.088Z,6.10
2023-03-05T06:10:56.805Z,4.10
2023-03-05T06:14:03.014Z,6.50
2023-03-05T06:17:07.149Z,7.10
2023-03-05T06:20:12.180Z,7.00
2023-03-05T06:23:16.212Z,6.20
2023-03-05T06:26:22.370Z,5.50
2023-03-05T06:29:26.278Z,8.60
2023-03-05T06:32:30.322Z,6.80
2023-03-05T06:35:34.442Z,7.60
2023-03-05T06:38:39.562Z,5.30
2023-03-05T06:41:44.689Z,6.50
2023-03-05T06:44:48.752Z,6.00
2023-03-05T06:47:52.728Z,8.00
2023-03-05T06:50:56.748Z,9.40
2023-03-05T06:54:03.837Z,6.30
2023-03-05T06:57:07.879Z,8.00
2023-03-05T07:00:12.947Z,9.10
2023-03-05T07:03:17.210Z,6.60
2023-03-05T07:06:22.472Z,6.90
2023-03-05T07:09:26.472Z,6.20
2023-03-05T07:12:30.600Z,5.40
2023-03-05T07:15:37.599Z,5.80
2023-03-05T07:18:42.156Z,8.70
2023-03-05T07:21:46.305Z,7.40
2023-03-05T07:24:51.156Z,7.00
2023-03-05T07:27:55.244Z,9.40
2023-03-05T07:31:07.601Z,8.20
2023-03-05T07:34:11.633Z,7.90
2023-03-05T07:37:15.637Z,9.40
2023-03-05T07:40:19.846Z,7.10
2023-03-05T07:43:23.810Z,8.00
2023-03-05T07:46:32.521Z,6.90
2023-03-05T07:49:36.601Z,8.80
2023-03-05T07:52:40.522Z,8.70
2023-03-05T07:55:46.273Z,6.00
2023-03-05T07:58:50.564Z,7.90
2023-03-05T08:01:54.612Z,7.20
2023-03-05T08:04:58.846Z,8.20
2023-03-05T08:08:02.783Z,10.10
2023-03-05T08:11:09.931Z,6.70
2023-03-05T08:14:13.915Z,4.50
2023-03-05T08:17:17.966Z,9.80
2023-03-05T08:20:21.983Z,8.70
2023-03-05T08:23:26.506Z,12.00
2023-03-05T08:26:32.448Z,7.70
2023-03-05T08:29:36.375Z,7.10
2023-03-05T08:32:40.748Z,8.80
2023-03-05T08:35:45.445Z,6.00
2023-03-05T08:38:50.678Z,6.30
2023-03-05T08:41:54.630Z,11.10
2023-03-05T08:44:58.614Z,10.40
2023-03-05T08:48:02.746Z,13.20
2023-03-05T08:51:12.895Z,11.20
2023-03-05T08:54:16.904Z,10.10
2023-03-05T08:57:20.851Z,10.00
2023-03-05T09:00:25.018Z,10.10
2023-03-05T09:03:29.154Z,10.00
2023-03-05T09:06:34.713Z,13.20
2023-03-05T09:09:39.094Z,9.10
2023-03-05T09:12:43.039Z,10.70
2023-03-05T09:15:58.082Z,12.30
2023-03-05T09:19:02.067Z,14.50
2023-03-05T09:22:06.160Z,11.90
2023-03-05T09:25:12.122Z,14.50
2023-03-05T09:28:17.009Z,14.60
2023-03-05T09:34:24.969Z,14.00
2023-03-05T09:37:29.714Z,13.00
2023-03-05T09:44:05.188Z,12.70
2023-03-05T09:47:44.830Z,15.60
2023-03-05T09:50:54.308Z,12.50
2023-03-05T09:54:05.519Z,12.90
2023-03-05T09:57:18.636Z,13.40
2023-03-05T10:00:31.935Z,13.10
2023-03-05T10:04:00.961Z,15.30
2023-03-05T10:07:21.022Z,13.90
2023-03-05T10:10:44.566Z,13.40
2023-03-05T10:13:49.945Z,11.00
2023-03-05T10:17:06.054Z,12.50
2023-03-05T10:20:31.668Z,13.00
2023-03-05T10:24:13.570Z,10.70
2023-03-05T10:27:33.762Z,14.20
2023-03-05T10:30:56.219Z,11.30
2023-03-05T10:37:34.255Z,16.80
2023-03-05T10:40:55.344Z,11.90
2023-03-05T10:44:23.856Z,9.60
2023-03-05T10:47:53.193Z,9.00
2023-03-05T10:51:14.083Z,7.60
2023-03-05T10:54:30.280Z,10.10
2023-03-05T10:57:34.230Z,6.80
2023-03-05T11:00:38.942Z,9.00
2023-03-05T11:06:52.585Z,6.00
2023-03-05T11:10:29.676Z,5.90
2023-03-05T11:13:36.431Z,10.20
2023-03-05T11:16:48.972Z,8.40
2023-03-05T11:19:52.992Z,13.70
2023-03-05T11:23:03.970Z,9.60
2023-03-05T11:26:13.676Z,9.00
2023-03-05T11:29:46.919Z,8.10
2023-03-05T11:32:50.929Z,7.40
2023-03-05T11:36:12.871Z,7.20
2023-03-05T11:39:19.450Z,7.60
2023-03-05T11:42:25.522Z,8.40
2023-03-05T11:45:31.926Z,7.80
2023-03-05T11:48:38.548Z,9.10
2023-03-05T11:51:50.981Z,12.90
2023-03-05T11:55:11.167Z,8.20
2023-03-05T11:58:33.490Z,10.40
2023-03-05T12:01:45.052Z,11.10
2023-03-05T12:04:50.009Z,8.10
2023-03-05T12:08:00.294Z,8.20
2023-03-05T12:11:13.231Z,8.70
2023-03-05T12:14:39.755Z,14.10
2023-03-05T12:17:52.166Z,15.90
2023-03-05T12:21:34.921Z,11.70
2023-03-05T12:24:39.962Z,13.30
2023-03-05T12:27:44.071Z,14.40
2023-03-05T12:30:47.984Z,16.20
2023-03-05T12:33:52.005Z,10.60
2023-03-05T12:36:56.018Z,10.90
2023-03-05T12:40:08.841Z,8.60
2023-03-05T12:43:35.179Z,9.90
2023-03-05T12:46:43.974Z,6.90
2023-03-05T12:49:48.634Z,10.00
2023-03-05T12:52:53.619Z,10.40
2023-03-05T12:56:02.135Z,10.10
2023-03-05T12:59:06.163Z,11.00
2023-03-05T13:02:21.166Z,14.90
2023-03-05T13:05:34.315Z,13.10
2023-03-05T13:08:38.420Z,12.20
2023-03-05T13:11:46.347Z,12.80
2023-03-05T13:15:09.706Z,12.60
2023-03-05T13:18:23.496Z,16.40
2023-03-05T13:21:29.832Z,14.60
2023-03-05T13:24:34.240Z,13.60
2023-03-05T13:27:38.359Z,14.90
2023-03-05T13:31:16.180Z,10.30
2023-03-05T13:34:26.561Z,10.30
2023-03-05T13:37:34.628Z,14.50
2023-03-05T13:40:40.917Z,7.00
2023-03-05T13:43:49.845Z,11.10
2023-03-05T13:46:53.858Z,9.70
2023-03-05T13:50:00.150Z,8.90
2023-03-05T13:53:30.449Z,10.40
2023-03-05T13:56:34.359Z,12.20
2023-03-05T13:59:40.956Z,9.10
2023-03-05T14:02:44.988Z,9.90
2023-03-05T14:05:50.139Z,15.40
2023-03-05T14:09:09.170Z,14.00
2023-03-05T14:12:37.044Z,7.60
2023-03-05T14:15:41.373Z,13.70
2023-03-05T14:18:59.727Z,12.20
2023-03-05T14:22:04.929Z,8.90
2023-03-05T14:25:34.158Z,12.20
2023-03-05T14:28:38.497Z,12.10
2023-03-05T14:31:53.351Z,15.50
2023-03-05T14:34:59.650Z,14.10
2023-03-05T14:38:08.584Z,10.20
2023-03-05T14:41:34.380Z,16.10
2023-03-05T14:44:38.342Z,9.30
2023-03-05T14:47:42.739Z,10.20
2023-03-05T14:50:56.423Z,8.90
2023-03-05T14:54:00.600Z,9.10
2023-03-05T14:57:05.835Z,13.80
2023-03-05T15:00:21.742Z,14.80
2023-03-05T15:03:28.116Z,13.30
2023-03-05T15:06:36.316Z,12.60
2023-03-05T15:09:40.342Z,13.70
2023-03-05T15:12:44.751Z,18.00
2023-03-05T15:15:51.569Z,13.80
2023-03-05T15:18:55.620Z,17.90
2023-03-05T15:21:59.983Z,16.00
2023-03-05T15:25:04.466Z,13.40
2023-03-05T15:28:08.616Z,19.80
2023-03-05T15:31:12.692Z,15.30
2023-03-05T15:34:17.071Z,16.70
2023-03-05T15:37:21.094Z,12.90
2023-03-05T15:40:27.966Z,12.00
2023-03-05T15:43:31.983Z,12.40
2023-03-05T15:46:36.083Z,11.60
2023-03-05T15:49:40.226Z,15.30
2023-03-05T15:52:44.234Z,16.80
2023-03-05T15:55:48.156Z,14.50
2023-03-05T15:58:52.164Z,14.50
2023-03-05T16:01:56.137Z,14.00
2023-03-05T16:05:00.118Z,17.50
2023-03-05T16:08:05.109Z,16.60
2023-03-05T16:11:09.117Z,16.70
2023-03-05T16:14:14.985Z,16.50
2023-03-05T16:17:22.102Z,15.50
2023-03-05T16:20:26.321Z,17.00
2023-03-05T16:23:30.445Z,21.40
2023-03-05T16:26:39.378Z,20.20
2023-03-05T16:29:43.489Z,17.40
2023-03-05T16:32:47.494Z,11.70
2023-03-05T16:36:20.399Z,16.90
2023-03-05T16:39:24.335Z,18.60
2023-03-05T16:42:28.329Z,25.30
2023-03-05T16:45:32.341Z,23.90
2023-03-05T16:48:37.275Z,14.10
2023-03-05T16:51:42.423Z,20.30
2023-03-05T16:54:47.071Z,22.30
2023-03-05T17:00:55.139Z,22.50
2023-03-05T17:03:59.976Z,20.30
2023-03-05T17:10:10.687Z,21.70
2023-03-05T17:13:14.723Z,14.40
2023-03-05T17:16:19.547Z,17.00
2023-03-05T17:22:27.417Z,16.40
2023-03-05T17:25:31.407Z,21.90
2023-03-05T17:28:35.728Z,22.40
2023-03-05T17:31:40.137Z,19.10
2023-03-05T17:34:44.579Z,19.40
2023-03-05T17:37:48.672Z,23.70
2023-03-05T17:40:52.736Z,23.40
2023-03-05T17:43:56.828Z,28.00
2023-03-05T17:47:00.982Z,34.30
2023-03-05T17:50:07.436Z,36.60
2023-03-05T17:53:11.738Z,28.90
2023-03-05T17:56:17.193Z,30.90
2023-03-05T17:59:21.302Z,20.40
2023-03-05T18:02:25.365Z,23.60
2023-03-05T18:05:29.758Z,33.50
2023-03-05T18:08:33.784Z,33.20
2023-03-05T18:11:38.182Z,39.30
2023-03-05T18:14:42.238Z,36.60
2023-03-05T18:17:46.341Z,38.10
2023-03-05T18:20:50.345Z,35.90
2023-03-05T18:23:54.326Z,34.80
2023-03-05T18:26:58.381Z,40.70
2023-03-05T18:30:02.392Z,39.00
2023-03-05T18:33:07.406Z,40.70
2023-03-05T18:39:18.687Z,34.00
2023-03-05T18:42:22.652Z,35.30
2023-03-05T18:45:26.667Z,31.00
2023-03-05T18:48:31.110Z,39.60
2023-03-05T18:51:36.103Z,53.70
2023-03-05T18:54:40.331Z,61.30
2023-03-05T18:57:44.597Z,73.20
2023-03-05T19:00:49.007Z,61.00
2023-03-05T19:03:54.246Z,54.00
2023-03-05T19:06:58.261Z,38.20
2023-03-05T19:10:07.294Z,35.70
2023-03-05T19:13:25.859Z,30.10
2023-03-05T19:16:34.061Z,31.50
2023-03-05T19:19:38.082Z,34.50
2023-03-05T19:22:42.563Z,39.20
2023-03-05T19:25:46.479Z,50.50
2023-03-05T19:28:50.481Z,49.80
2023-03-05T19:31:54.899Z,43.60
2023-03-05T19:34:59.090Z,41.60
2023-03-05T19:38:03.096Z,38.40
2023-03-05T19:41:09.983Z,46.90
2023-03-05T19:44:14.366Z,41.40
2023-03-05T19:47:18.517Z,41.90
2023-03-05T19:50:23.030Z,32.80
2023-03-05T19:53:27.365Z,34.30
2023-03-05T19:56:31.384Z,34.50
2023-03-05T19:59:35.363Z,41.70
2023-03-05T20:02:39.416Z,38.00
2023-03-05T20:05:43.936Z,52.00
2023-03-05T20:08:48.962Z,42.20
2023-03-05T20:14:57.018Z,29.40
2023-03-05T20:18:01.117Z,36.70
2023-03-05T20:21:05.250Z,31.10
2023-03-05T20:24:14.022Z,29.20
2023-03-05T20:27:18.051Z,38.10
2023-03-05T20:30:22.159Z,34.10
2023-03-05T20:33:27.950Z,32.10
2023-03-05T20:36:32.500Z,31.60
2023-03-05T20:39:36.511Z,33.30
2023-03-05T20:42:40.528Z,29.20
2023-03-05T20:45:45.058Z,48.60
2023-03-05T20:48:51.517Z,39.20
2023-03-05T20:51:55.560Z,39.50
2023-03-05T20:54:59.488Z,30.40
2023-03-05T20:58:03.491Z,34.50
2023-03-05T21:01:07.549Z,30.10
2023-03-05T21:04:11.622Z,30.10
2023-03-05T21:07:15.660Z,28.00
2023-03-05T21:10:20.858Z,27.30
2023-03-05T21:13:25.621Z,29.50
2023-03-05T21:19:34.318Z,24.50
2023-03-05T21:25:42.232Z,30.30
2023-03-05T21:28:46.297Z,29.60
2023-03-05T21:31:50.340Z,42.60
2023-03-05T21:34:54.268Z,45.00
2023-03-05T21:37:59.360Z,35.50
2023-03-05T21:41:04.196Z,28.10
2023-03-05T21:44:09.646Z,33.50
2023-03-05T21:47:14.694Z,38.50
2023-03-05T21:50:20.856Z,37.00
2023-03-05T21:53:25.486Z,34.10
2023-03-05T21:56:31.244Z,37.20
2023-03-05T21:59:35.753Z,34.80
2023-03-05T22:02:41.304Z,31.00
2023-03-05T22:05:45.634Z,28.90
2023-03-05T22:08:49.632Z,29.50
2023-03-05T22:11:53.674Z,36.50
2023-03-05T22:14:57.690Z,32.00
2023-03-05T22:18:01.905Z,48.70
2023-03-05T22:21:17.186Z,42.00
2023-03-05T22:24:25.194Z,38.10
2023-03-05T22:27:30.206Z,41.50
2023-03-05T22:30:34.129Z,37.10
2023-03-05T22:33:38.352Z,38.80
2023-03-05T22:36:42.263Z,40.10
2023-03-05T22:39:46.202Z,43.20
2023-03-05T22:42:50.416Z,34.40
2023-03-05T22:45:54.422Z,38.90
2023-03-05T22:48:58.444Z,37.00
2023-03-05T22:52:02.356Z,45.30
2023-03-05T22:55:07.052Z,43.50
2023-03-05T23:01:21.116Z,43.00
2023-03-05T23:04:48.330Z,36.30
2023-03-05T23:07:52.454Z,46.70
2023-03-05T23:10:56.476Z,44.90
2023-03-05T23:14:00.480Z,33.30
2023-03-05T23:17:04.812Z,35.50
2023-03-05T23:20:11.573Z,36.10
2023-03-05T23:23:15.543Z,44.20
2023-03-05T23:26:19.461Z,28.60
2023-03-05T23:29:25.159Z,35.10
2023-03-05T23:32:29.544Z,28.80
2023-03-05T23:35:42.136Z,29.80
2023-03-05T23:38:46.227Z,30.90
2023-03-05T23:41:50.518Z,36.50
2023-03-05T23:44:54.611Z,31.50
2023-03-05T23:47:59.072Z,27.50
2023-03-05T23:51:08.528Z,28.40
2023-03-05T23:54:12.548Z,30.70
2023-03-05T23:57:16.665Z,40.10
